Time;durP1;ratioP1;P1;durP2;ratioP2;P2;SDS_P1;SDS_P2;PMS_P1;PMS_P2;Temp;Humidity;BMP_temperature;BMP_pressure;BME280_temperature;BME280_humidity;BME280_pressure;Samples;Min_cycle;Max_cycle;Signal;HPM_P1;HPM_P2
2022/01/16 00:04:27;;;;;;;;;;;18.90;44.20;;;;;;5007190;28;43102;-69
2022/01/16 00:06:53;;;;;;;;;;;18.90;44.20;;;;;;5024864;28;43667;-68
2022/01/16 00:09:18;;;;;;;;;;;18.90;44.30;;;;;;5043921;28;42991;-69
2022/01/16 00:11:44;;;;;;;;;;;18.90;44.30;;;;;;5043694;28;43498;-69
2022/01/16 00:14:10;;;;;;;;;;;18.90;44.30;;;;;;5029175;28;42815;-69
2022/01/16 00:16:39;;;;;;;;;;;18.90;44.10;;;;;;5042955;28;43478;-73
2022/01/16 00:19:05;;;;;;;;;;;21.70;46.40;;;;;;5037894;28;43355;-69
2022/01/16 00:21:32;;;;;;;;;;;17.70;35.30;;;;;;5041483;28;43192;-68
2022/01/16 00:23:58;;;;;;;;;;;17.00;35.30;;;;;;5041350;28;42917;-69
2022/01/16 00:26:23;;;;;;;;;;;16.40;35.70;;;;;;5039453;28;43070;-68
2022/01/16 00:28:49;;;;;;;;;;;16.00;35.90;;;;;;5038572;28;42960;-70
2022/01/16 00:31:16;;;;;;;;;;;16.30;39.10;;;;;;5034202;28;43946;-76
2022/01/16 00:33:44;;;;;;;;;;;16.90;39.50;;;;;;5032415;28;43167;-70
2022/01/16 00:36:14;;;;;;;;;;;17.20;40.00;;;;;;5022189;28;43384;-73
2022/01/16 00:38:42;;;;;;;;;;;17.50;40.80;;;;;;5035438;28;43129;-70
2022/01/16 00:41:08;;;;;;;;;;;17.60;41.10;;;;;;5025145;28;43283;-73
2022/01/16 00:43:33;;;;;;;;;;;17.80;41.30;;;;;;5041975;28;43009;-77
2022/01/16 00:45:59;;;;;;;;;;;17.90;41.70;;;;;;5024296;28;43786;-76
2022/01/16 00:48:24;;;;;;;;;;;18.00;41.80;;;;;;5041984;28;42996;-72
2022/01/16 00:50:50;;;;;;;;;;;18.00;42.20;;;;;;5042256;28;43131;-70
2022/01/16 00:53:16;;;;;;;;;;;18.10;42.40;;;;;;5042057;28;43024;-70
2022/01/16 00:55:41;;;;;;;;;;;18.20;42.40;;;;;;5037340;28;42984;-70
2022/01/16 00:58:07;;;;;;;;;;;18.20;42.80;;;;;;5022897;28;43002;-72
2022/01/16 01:00:33;;;;;;;;;;;18.30;43.20;;;;;;5025737;28;42984;-76
2022/01/16 01:02:59;;;;;;;;;;;18.30;43.30;;;;;;5042754;28;44069;-74
2022/01/16 01:05:25;;;;;;;;;;;18.30;43.60;;;;;;5042729;28;43313;-73
2022/01/16 01:07:51;;;;;;;;;;;18.40;43.80;;;;;;5042350;28;43073;-74
2022/01/16 01:10:16;;;;;;;;;;;18.40;43.90;;;;;;5043387;28;42890;-76
2022/01/16 01:12:56;;;;;;;;;;;18.30;44.00;;;;;;5043474;28;42964;-74
2022/01/16 01:15:26;;;;;;;;;;;18.50;44.10;;;;;;5042855;28;42996;-71
2022/01/16 01:17:51;;;;;;;;;;;18.40;44.20;;;;;;5044094;28;42909;-71
2022/01/16 01:20:19;;;;;;;;;;;18.50;44.20;;;;;;5043503;28;43697;-70
2022/01/16 01:22:45;;;;;;;;;;;18.50;44.30;;;;;;5044078;28;42979;-75
2022/01/16 01:25:14;;;;;;;;;;;18.50;44.40;;;;;;5043817;28;43418;-67
2022/01/16 01:27:41;;;;;;;;;;;18.50;44.40;;;;;;5042983;28;42958;-69
2022/01/16 01:30:09;;;;;;;;;;;18.50;44.40;;;;;;5043918;28;43480;-74
2022/01/16 01:32:42;;;;;;;;;;;18.50;44.60;;;;;;5044142;28;42913;-70
2022/01/16 01:35:09;;;;;;;;;;;18.50;44.70;;;;;;5025415;28;42779;-75
2022/01/16 01:37:34;;;;;;;;;;;18.50;44.80;;;;;;5043730;28;43003;-75
2022/01/16 01:40:00;;;;;;;;;;;18.50;44.90;;;;;;5043596;28;43005;-75
2022/01/16 01:42:42;;;;;;;;;;;18.50;45.00;;;;;;5043033;28;42952;-71
2022/01/16 01:51:03;;;;;;;;;;;18.50;45.10;;;;;;5043583;28;43105;-75
2022/01/16 01:51:07;;;;;;;;;;;18.50;45.20;;;;;;5046546;28;43398;-75
2022/01/16 01:53:33;;;;;;;;;;;18.60;45.30;;;;;;5047146;28;43066;-71
2022/01/16 01:55:59;;;;;;;;;;;18.60;45.90;;;;;;5046446;28;43243;-74
2022/01/16 01:58:24;;;;;;;;;;;18.60;45.50;;;;;;5046270;28;42919;-73
2022/01/16 02:00:50;;;;;;;;;;;18.60;45.40;;;;;;5046838;28;43363;-77
2022/01/16 02:03:18;;;;;;;;;;;18.60;45.50;;;;;;5046620;28;43669;-71
2022/01/16 02:05:44;;;;;;;;;;;18.60;45.60;;;;;;5044599;28;43024;-72
2022/01/16 02:08:10;;;;;;;;;;;18.60;45.90;;;;;;5032779;28;42940;-73
2022/01/16 02:10:37;;;;;;;;;;;18.60;46.10;;;;;;5044120;28;43560;-69
2022/01/16 02:13:05;;;;;;;;;;;18.60;45.80;;;;;;5025523;28;42895;-70
2022/01/16 02:31:33;;;;;;;;;;;18.60;47.00;;;;;;5037609;28;43333;-70
2022/01/16 02:36:48;;;;;;;;;;;18.60;46.80;;;;;;5046856;28;43090;-70
2022/01/16 02:39:15;;;;;;;;;;;18.60;47.10;;;;;;5046288;28;43281;-72
2022/01/16 02:41:42;;;;;;;;;;;18.60;47.00;;;;;;5046234;28;43007;-72
2022/01/16 02:45:01;;;;;;;;;;;18.60;47.20;;;;;;5046322;28;42985;-73
2022/01/16 02:46:58;;;;;;;;;;;18.60;47.30;;;;;;5039170;28;42912;-74
2022/01/16 02:49:23;;;;;;;;;;;18.60;47.50;;;;;;5045391;28;43077;-74
2022/01/16 02:51:50;;;;;;;;;;;18.60;47.30;;;;;;5046301;28;43551;-74
2022/01/16 02:54:16;;;;;;;;;;;18.60;47.70;;;;;;5046509;28;42901;-70
2022/01/16 02:56:43;;;;;;;;;;;18.60;47.60;;;;;;5045990;28;43482;-70
2022/01/16 02:59:12;;;;;;;;;;;18.60;47.70;;;;;;5045459;28;42977;-73
2022/01/16 03:01:38;;;;;;;;;;;18.60;47.60;;;;;;5044519;28;43027;-73
2022/01/16 03:04:04;;;;;;;;;;;18.60;47.70;;;;;;5045301;28;42930;-72
2022/01/16 03:06:29;;;;;;;;;;;18.60;47.70;;;;;;5045393;28;43074;-70
2022/01/16 03:08:55;;;;;;;;;;;18.60;47.90;;;;;;5034528;28;42958;-70
2022/01/16 03:13:53;;;;;;;;;;;18.60;48.20;;;;;;5024347;28;59579;-71
2022/01/16 03:16:21;;;;;;;;;;;18.60;48.10;;;;;;5025540;28;43012;-74
2022/01/16 03:24:15;;;;;;;;;;;18.60;48.20;;;;;;5029110;28;42874;-72
2022/01/16 03:26:40;;;;;;;;;;;18.60;48.40;;;;;;5026019;28;43028;-72
2022/01/16 03:29:06;;;;;;;;;;;18.60;48.40;;;;;;5025924;28;42966;-71
2022/01/16 03:31:32;;;;;;;;;;;18.60;48.50;;;;;;5025256;28;43071;-72
2022/01/16 03:33:57;;;;;;;;;;;18.60;48.70;;;;;;5025652;28;43114;-74
2022/01/16 03:36:23;;;;;;;;;;;18.60;48.70;;;;;;5025340;28;43123;-73
2022/01/16 03:38:48;;;;;;;;;;;18.60;48.70;;;;;;5024928;28;42900;-72
2022/01/16 03:41:14;;;;;;;;;;;18.60;48.70;;;;;;5041080;28;44051;-75
2022/01/16 03:43:39;;;;;;;;;;;18.70;48.80;;;;;;5044648;28;42940;-75
2022/01/16 03:46:05;;;;;;;;;;;18.60;48.90;;;;;;5044498;28;42980;-72
2022/01/16 03:48:31;;;;;;;;;;;18.60;48.90;;;;;;5044094;28;43083;-74
2022/01/16 03:50:57;;;;;;;;;;;18.70;49.00;;;;;;5044567;28;43003;-71
2022/01/16 03:53:22;;;;;;;;;;;18.60;49.10;;;;;;5045035;28;43100;-72
2022/01/16 03:55:48;;;;;;;;;;;18.60;49.80;;;;;;5044867;28;42997;-73
2022/01/16 03:58:14;;;;;;;;;;;18.60;49.90;;;;;;5044379;28;42952;-74
2022/01/16 04:00:40;;;;;;;;;;;18.60;49.90;;;;;;5044436;28;43506;-74
2022/01/16 04:03:05;;;;;;;;;;;18.60;50.00;;;;;;5044712;28;43191;-76
2022/01/16 04:05:31;;;;;;;;;;;18.60;50.10;;;;;;5045100;28;43604;-73
2022/01/16 04:07:58;;;;;;;;;;;18.70;50.20;;;;;;5044210;28;43007;-76
2022/01/16 04:10:23;;;;;;;;;;;18.70;50.40;;;;;;5044436;28;43011;-71
2022/01/16 04:12:49;;;;;;;;;;;18.60;50.40;;;;;;5044157;28;42980;-72
2022/01/16 04:17:41;;;;;;;;;;;18.70;50.90;;;;;;5043775;28;42867;-73
2022/01/16 04:20:07;;;;;;;;;;;18.70;50.90;;;;;;5045044;28;43541;-74
2022/01/16 04:22:32;;;;;;;;;;;18.60;50.70;;;;;;5044949;28;42991;-75
2022/01/16 04:24:58;;;;;;;;;;;18.60;51.10;;;;;;5044912;28;43358;-72
2022/01/16 04:27:23;;;;;;;;;;;18.70;51.20;;;;;;5044809;28;43136;-76
2022/01/16 04:29:49;;;;;;;;;;;18.70;51.30;;;;;;5044671;28;43003;-74
2022/01/16 04:32:14;;;;;;;;;;;18.70;51.40;;;;;;5044770;28;43610;-71
2022/01/16 04:34:40;;;;;;;;;;;18.70;51.30;;;;;;5044679;28;42901;-74
2022/01/16 04:37:06;;;;;;;;;;;18.60;51.50;;;;;;5044801;28;42897;-73
2022/01/16 04:39:34;;;;;;;;;;;18.60;51.40;;;;;;5044340;28;43062;-75
2022/01/16 04:44:44;;;;;;;;;;;18.70;51.50;;;;;;5043503;28;43068;-71
2022/01/16 04:47:09;;;;;;;;;;;18.60;51.40;;;;;;5044682;28;43165;-77
2022/01/16 04:49:35;;;;;;;;;;;18.70;51.60;;;;;;5044142;28;44074;-74
2022/01/16 04:52:01;;;;;;;;;;;18.60;51.40;;;;;;5043792;28;42885;-76
2022/01/16 04:54:26;;;;;;;;;;;18.70;51.50;;;;;;5043369;28;43117;-76
2022/01/16 04:56:52;;;;;;;;;;;18.40;51.60;;;;;;5043634;28;42992;-72
2022/01/16 04:59:19;;;;;;;;;;;18.70;51.80;;;;;;5043229;28;43869;-73
2022/01/16 05:01:44;;;;;;;;;;;18.70;51.60;;;;;;5043751;28;42926;-71
2022/01/16 05:04:10;;;;;;;;;;;18.70;51.70;;;;;;5043493;28;43207;-69
2022/01/16 05:06:35;;;;;;;;;;;18.60;52.10;;;;;;5043062;28;43148;-72
2022/01/16 05:09:01;;;;;;;;;;;18.70;52.30;;;;;;5042967;28;43493;-74
2022/01/16 05:11:27;;;;;;;;;;;18.70;52.60;;;;;;5043923;28;42810;-71
2022/01/16 05:16:36;;;;;;;;;;;18.70;52.70;;;;;;5043888;28;43102;-71
2022/01/16 05:19:10;;;;;;;;;;;18.70;52.90;;;;;;5043942;28;42801;-72
2022/01/16 05:21:36;;;;;;;;;;;18.70;52.80;;;;;;5043840;28;43010;-74
2022/01/16 05:24:06;;;;;;;;;;;18.70;52.60;;;;;;5046159;28;42996;-72
2022/01/16 05:26:31;;;;;;;;;;;18.70;52.60;;;;;;5047261;28;42982;-71
2022/01/16 05:28:57;;;;;;;;;;;18.70;52.40;;;;;;5047212;28;43555;-72
2022/01/16 05:31:23;;;;;;;;;;;18.70;52.70;;;;;;5047215;28;43061;-71
2022/01/16 05:33:49;;;;;;;;;;;18.70;52.40;;;;;;5047494;28;43131;-71
2022/01/16 05:36:14;;;;;;;;;;;18.70;52.50;;;;;;5033060;28;42985;-73
2022/01/16 05:38:40;;;;;;;;;;;18.70;52.50;;;;;;5026808;28;43535;-73
2022/01/16 05:41:05;;;;;;;;;;;18.70;52.50;;;;;;5042540;28;43253;-71
2022/01/16 05:43:31;;;;;;;;;;;18.60;52.50;;;;;;5046719;28;43882;-73
2022/01/16 05:45:57;;;;;;;;;;;18.70;52.50;;;;;;5047198;28;43003;-72
2022/01/16 05:48:22;;;;;;;;;;;18.70;53.00;;;;;;5047252;28;42911;-74
2022/01/16 05:50:48;;;;;;;;;;;18.70;52.70;;;;;;5047142;28;42985;-71
2022/01/16 05:53:14;;;;;;;;;;;18.70;52.90;;;;;;5046679;28;43059;-71
2022/01/16 05:55:41;;;;;;;;;;;18.70;52.90;;;;;;5046691;28;42977;-73
2022/01/16 05:58:07;;;;;;;;;;;18.70;53.00;;;;;;5047090;28;43411;-71
2022/01/16 06:00:34;;;;;;;;;;;18.70;53.10;;;;;;5046587;28;43011;-73
2022/01/16 06:02:59;;;;;;;;;;;18.70;52.90;;;;;;5046950;28;42993;-74
2022/01/16 06:05:25;;;;;;;;;;;18.70;52.90;;;;;;5046603;28;42913;-71
2022/01/16 06:07:54;;;;;;;;;;;18.70;52.70;;;;;;5046304;28;42880;-71
2022/01/16 06:10:19;;;;;;;;;;;18.70;52.70;;;;;;5046549;28;42916;-72
2022/01/16 06:12:45;;;;;;;;;;;18.70;52.60;;;;;;5046921;28;43139;-70
2022/01/16 06:15:11;;;;;;;;;;;18.70;52.50;;;;;;5046453;28;43019;-71
2022/01/16 06:17:37;;;;;;;;;;;18.70;52.50;;;;;;5036768;28;44018;-74
2022/01/16 06:20:02;;;;;;;;;;;18.70;52.40;;;;;;5026150;28;42925;-74
2022/01/16 06:22:28;;;;;;;;;;;18.70;52.40;;;;;;5025358;28;43637;-73
2022/01/16 06:24:53;;;;;;;;;;;18.70;52.40;;;;;;5027471;28;43150;-73
2022/01/16 06:27:19;;;;;;;;;;;18.70;52.30;;;;;;5033951;28;43750;-75
2022/01/16 06:29:44;;;;;;;;;;;18.70;52.30;;;;;;5042431;28;43087;-73
2022/01/16 06:32:10;;;;;;;;;;;18.70;52.10;;;;;;5046699;28;43530;-72
2022/01/16 06:34:35;;;;;;;;;;;18.70;52.10;;;;;;5045866;28;42994;-74
2022/01/16 06:37:01;;;;;;;;;;;18.70;52.10;;;;;;5046214;28;43665;-71
2022/01/16 06:39:29;;;;;;;;;;;18.70;52.00;;;;;;5045849;28;42948;-73
2022/01/16 06:41:54;;;;;;;;;;;18.70;52.10;;;;;;5044886;28;43069;-70
2022/01/16 06:44:20;;;;;;;;;;;18.70;52.20;;;;;;5045720;28;43040;-71
2022/01/16 06:46:45;;;;;;;;;;;18.70;52.40;;;;;;5046086;28;42832;-70
2022/01/16 06:49:12;;;;;;;;;;;18.70;52.40;;;;;;5046501;28;43047;-70
2022/01/16 06:51:38;;;;;;;;;;;18.70;52.50;;;;;;5046235;28;43024;-71
2022/01/16 06:54:03;;;;;;;;;;;18.70;52.70;;;;;;5027900;28;43011;-73
2022/01/16 06:56:29;;;;;;;;;;;18.70;52.80;;;;;;5045949;28;42984;-70
2022/01/16 06:58:55;;;;;;;;;;;18.70;52.70;;;;;;5046303;28;43042;-71
2022/01/16 07:01:21;;;;;;;;;;;18.70;52.90;;;;;;5045737;28;43512;-71
2022/01/16 07:03:46;;;;;;;;;;;18.70;52.70;;;;;;5046261;28;42901;-71
2022/01/16 07:06:12;;;;;;;;;;;18.70;52.80;;;;;;5037790;28;43450;-71
2022/01/16 07:08:37;;;;;;;;;;;18.70;52.90;;;;;;5036029;28;43261;-71
2022/01/16 07:11:03;;;;;;;;;;;18.70;52.90;;;;;;5037150;28;43420;-72
2022/01/16 07:13:29;;;;;;;;;;;18.70;53.00;;;;;;5025824;28;42783;-71
2022/01/16 07:15:55;;;;;;;;;;;18.70;52.90;;;;;;5007525;28;44533;-70
2022/01/16 07:18:21;;;;;;;;;;;18.70;52.90;;;;;;5040690;28;43305;-72
2022/01/16 07:20:47;;;;;;;;;;;18.70;53.00;;;;;;5039707;28;42949;-75
2022/01/16 07:23:13;;;;;;;;;;;18.70;53.30;;;;;;5035582;28;43017;-70
2022/01/16 07:25:39;;;;;;;;;;;18.70;53.30;;;;;;5033030;28;44697;-78
2022/01/16 07:28:05;;;;;;;;;;;18.70;52.90;;;;;;5013008;28;45196;-70
2022/01/16 07:30:31;;;;;;;;;;;18.70;53.00;;;;;;5036472;28;45532;-78
2022/01/16 07:32:56;;;;;;;;;;;18.70;52.90;;;;;;5035054;28;44376;-72
2022/01/16 07:35:22;;;;;;;;;;;18.70;52.70;;;;;;5030329;28;43899;-72
2022/01/16 07:37:48;;;;;;;;;;;18.70;53.00;;;;;;5034130;28;42881;-73
2022/01/16 07:40:14;;;;;;;;;;;18.70;52.80;;;;;;5033692;28;42990;-70
2022/01/16 07:42:40;;;;;;;;;;;18.70;52.60;;;;;;5044636;28;43104;-72
2022/01/16 07:45:06;;;;;;;;;;;18.70;52.90;;;;;;5044473;28;43407;-77
2022/01/16 07:47:31;;;;;;;;;;;18.70;52.90;;;;;;5043349;28;43148;-73
2022/01/16 07:49:57;;;;;;;;;;;18.70;52.80;;;;;;5045077;28;43635;-75
2022/01/16 07:52:22;;;;;;;;;;;18.70;52.80;;;;;;5044590;28;43031;-72
2022/01/16 07:54:48;;;;;;;;;;;18.70;52.00;;;;;;5043391;28;43497;-75
2022/01/16 07:57:13;;;;;;;;;;;18.70;52.30;;;;;;5043021;28;43116;-72
2022/01/16 07:59:39;;;;;;;;;;;18.70;52.10;;;;;;5043345;28;43194;-72
2022/01/16 08:02:05;;;;;;;;;;;18.70;48.60;;;;;;5044995;28;42873;-72
2022/01/16 08:04:30;;;;;;;;;;;18.70;49.40;;;;;;5043935;28;43191;-72
2022/01/16 08:06:56;;;;;;;;;;;18.60;48.20;;;;;;5044237;28;42853;-77
2022/01/16 08:09:30;;;;;;;;;;;18.60;48.70;;;;;;5110505;27;2015343;-76
2022/01/16 08:11:55;;;;;;;;;;;18.60;47.80;;;;;;5164052;27;43002;-77
2022/01/16 08:14:21;;;;;;;;;;;18.60;48.30;;;;;;5163641;27;43080;-76
2022/01/16 08:16:46;;;;;;;;;;;18.60;47.30;;;;;;5155084;27;43176;-73
2022/01/16 08:19:12;;;;;;;;;;;18.60;47.00;;;;;;5160219;27;43220;-72
2022/01/16 08:21:37;;;;;;;;;;;18.60;47.00;;;;;;5159233;27;43540;-75
2022/01/16 08:24:04;;;;;;;;;;;18.60;46.60;;;;;;5162983;27;43135;-79
2022/01/16 08:26:30;;;;;;;;;;;18.60;51.30;;;;;;5162140;27;43956;-70
2022/01/16 08:28:56;;;;;;;;;;;18.60;50.50;;;;;;5161619;27;43093;-71
2022/01/16 08:31:23;;;;;;;;;;;18.60;51.20;;;;;;5160875;27;43553;-67
2022/01/16 08:33:48;;;;;;;;;;;18.60;50.80;;;;;;5163102;27;43096;-71
2022/01/16 08:36:14;;;;;;;;;;;18.60;52.60;;;;;;5164293;27;43672;-70
2022/01/16 08:38:39;;;;;;;;;;;18.60;52.90;;;;;;5163964;27;42946;-70
2022/01/16 08:41:05;;;;;;;;;;;18.60;53.30;;;;;;5162894;27;42832;-70
2022/01/16 08:43:31;;;;;;;;;;;18.60;53.40;;;;;;5164146;27;42978;-70
2022/01/16 08:45:56;;;;;;;;;;;18.70;53.40;;;;;;5145653;27;43626;-69
2022/01/16 08:48:22;;;;;;;;;;;18.70;53.50;;;;;;5163463;27;43043;-69
2022/01/16 08:50:48;;;;;;;;;;;18.70;53.20;;;;;;5163454;27;43342;-69
2022/01/16 08:53:13;;;;;;;;;;;18.70;53.00;;;;;;5163774;27;42954;-69
2022/01/16 08:55:38;;;;;;;;;;;18.70;53.30;;;;;;5145161;27;43823;-69
2022/01/16 08:58:04;;;;;;;;;;;18.70;53.80;;;;;;5163861;27;43165;-70
2022/01/16 09:00:31;;;;;;;;;;;18.70;53.30;;;;;;5163002;27;44448;-68
2022/01/16 09:02:57;;;;;;;;;;;18.70;52.90;;;;;;5163748;27;42807;-69
2022/01/16 09:05:23;;;;;;;;;;;18.70;53.50;;;;;;5163522;27;42910;-69
2022/01/16 09:07:48;;;;;;;;;;;18.70;53.20;;;;;;5162806;27;43581;-69
2022/01/16 09:10:14;;;;;;;;;;;18.70;53.30;;;;;;5163162;27;43629;-77
2022/01/16 09:12:40;;;;;;;;;;;18.70;53.50;;;;;;5162328;27;43032;-71
2022/01/16 09:15:07;;;;;;;;;;;18.70;53.10;;;;;;5163119;27;42969;-68
2022/01/16 09:17:32;;;;;;;;;;;18.70;54.10;;;;;;5163281;27;42989;-69
2022/01/16 09:19:58;;;;;;;;;;;18.70;53.90;;;;;;5154328;27;43579;-69
2022/01/16 09:22:23;;;;;;;;;;;18.70;52.10;;;;;;5134509;27;43552;-68
2022/01/16 09:24:49;;;;;;;;;;;18.70;48.30;;;;;;5144084;27;43581;-68
2022/01/16 09:27:15;;;;;;;;;;;18.70;53.80;;;;;;5150150;27;43389;-69
2022/01/16 09:29:40;;;;;;;;;;;18.70;54.30;;;;;;5160611;27;43186;-70
2022/01/16 09:32:06;;;;;;;;;;;18.70;53.90;;;;;;5157018;27;43037;-70
2022/01/16 09:34:32;;;;;;;;;;;18.70;53.80;;;;;;5146470;27;42829;-70
2022/01/16 09:36:57;;;;;;;;;;;18.70;53.80;;;;;;5148984;27;43000;-74
2022/01/16 09:39:24;;;;;;;;;;;18.70;54.10;;;;;;5148793;27;43496;-68
2022/01/16 09:41:50;;;;;;;;;;;18.70;54.20;;;;;;5132119;27;42941;-69
2022/01/16 09:44:17;;;;;;;;;;;18.70;53.90;;;;;;5141298;27;43488;-69
2022/01/16 09:46:42;;;;;;;;;;;18.70;54.20;;;;;;5109905;27;43013;-69
2022/01/16 09:49:08;;;;;;;;;;;18.70;54.20;;;;;;5127838;27;43017;-70
2022/01/16 09:51:33;;;;;;;;;;;18.70;54.40;;;;;;5140701;27;43059;-69
2022/01/16 09:53:59;;;;;;;;;;;18.70;54.40;;;;;;5149227;27;43784;-70
2022/01/16 09:56:25;;;;;;;;;;;18.80;54.40;;;;;;5147181;27;42908;-70
2022/01/16 09:58:50;;;;;;;;;;;18.70;54.30;;;;;;5149216;27;43832;-69
2022/01/16 10:01:16;;;;;;;;;;;18.70;54.40;;;;;;5147837;27;43136;-69
2022/01/16 10:03:43;;;;;;;;;;;18.70;54.50;;;;;;5129313;27;45008;-69
2022/01/16 10:06:10;;;;;;;;;;;18.70;54.40;;;;;;5127753;27;42865;-69
2022/01/16 10:08:37;;;;;;;;;;;18.70;54.60;;;;;;5148226;27;42949;-71
2022/01/16 10:11:19;;;;;;;;;;;18.70;54.50;;;;;;5148952;27;42942;-69
2022/01/16 10:14:21;;;;;;;;;;;18.70;54.60;;;;;;5148350;27;43416;-70
2022/01/16 10:16:47;;;;;;;;;;;18.80;54.60;;;;;;5128994;27;43399;-69
2022/01/16 10:19:20;;;;;;;;;;;18.70;54.90;;;;;;5148974;27;42994;-69
2022/01/16 10:21:46;;;;;;;;;;;18.60;55.30;;;;;;5150331;27;43075;-70
2022/01/16 10:24:19;;;;;;;;;;;18.80;55.40;;;;;;5144175;27;42939;-70
2022/01/16 10:26:44;;;;;;;;;;;18.80;55.00;;;;;;5146453;27;43872;-70
2022/01/16 10:29:20;;;;;;;;;;;18.90;54.60;;;;;;5144874;27;43853;-69
2022/01/16 10:31:46;;;;;;;;;;;18.80;53.50;;;;;;5138677;27;43093;-69
2022/01/16 10:34:25;;;;;;;;;;;18.80;50.80;;;;;;5129315;27;43023;-78
2022/01/16 10:36:51;;;;;;;;;;;18.80;46.20;;;;;;5129454;27;42958;-69
2022/01/16 10:39:16;;;;;;;;;;;18.70;40.60;;;;;;5132770;27;43052;-69
2022/01/16 10:41:42;;;;;;;;;;;18.60;41.20;;;;;;5145247;27;43179;-68
2022/01/16 10:44:29;;;;;;;;;;;18.40;40.30;;;;;;5129555;27;43586;-68
2022/01/16 10:53:40;;;;;;;;;;;18.80;39.20;;;;;;5026590;28;43033;-70
2022/01/16 10:59:56;;;;;;;;;;;19.40;40.80;;;;;;4947802;28;44147;-69
2022/01/16 11:02:21;;;;;;;;;;;18.40;38.90;;;;;;4929048;28;44833;-69
2022/01/16 11:04:47;;;;;;;;;;;18.50;38.50;;;;;;4974773;28;42964;-69
2022/01/16 11:07:12;;;;;;;;;;;18.50;38.40;;;;;;4982663;28;43573;-69
2022/01/16 11:09:41;;;;;;;;;;;18.40;38.00;;;;;;4979246;28;43186;-69
2022/01/16 11:12:09;;;;;;;;;;;18.80;38.50;;;;;;4981305;28;44361;-69
2022/01/16 11:14:35;;;;;;;;;;;18.40;39.80;;;;;;4981334;28;42807;-70
2022/01/16 11:17:00;;;;;;;;;;;18.40;40.40;;;;;;4980646;28;44458;-70
2022/01/16 11:19:29;;;;;;;;;;;18.50;40.50;;;;;;4981653;28;43452;-69
2022/01/16 11:22:02;;;;;;;;;;;18.50;39.60;;;;;;4979253;28;43157;-70
2022/01/16 11:24:36;;;;;;;;;;;18.50;40.30;;;;;;4981574;28;42968;-69
2022/01/16 11:27:02;;;;;;;;;;;18.50;40.50;;;;;;4982048;28;43634;-69
2022/01/16 11:29:28;;;;;;;;;;;18.60;39.40;;;;;;5037219;27;43252;-70
2022/01/16 11:31:55;;;;;;;;;;;18.60;40.60;;;;;;5065344;28;43027;-71
2022/01/16 11:34:20;;;;;;;;;;;18.60;40.60;;;;;;5070779;27;42986;-78
2022/01/16 11:36:46;;;;;;;;;;;18.60;39.60;;;;;;5097373;27;44212;-68
2022/01/16 11:39:12;;;;;;;;;;;18.60;40.20;;;;;;5103544;27;42984;-69
2022/01/16 11:41:55;;;;;;;;;;;18.60;40.00;;;;;;5123578;27;43566;-74
2022/01/16 11:44:22;;;;;;;;;;;18.60;39.60;;;;;;5124409;27;43214;-69
2022/01/16 11:46:51;;;;;;;;;;;18.60;39.20;;;;;;5124875;27;43197;-77
2022/01/16 11:49:30;;;;;;;;;;;18.60;39.30;;;;;;5125551;27;42981;-68
2022/01/16 11:52:02;;;;;;;;;;;18.60;40.20;;;;;;5125557;27;42969;-68
2022/01/16 11:54:28;;;;;;;;;;;18.60;39.20;;;;;;5126704;27;42823;-71
2022/01/16 11:56:57;;;;;;;;;;;18.60;39.30;;;;;;5125900;27;43733;-69
2022/01/16 11:59:34;;;;;;;;;;;18.60;39.20;;;;;;5126032;27;43035;-68
2022/01/16 12:02:01;;;;;;;;;;;18.60;39.30;;;;;;5126025;27;42929;-69
2022/01/16 12:04:29;;;;;;;;;;;18.60;39.00;;;;;;5126196;27;42993;-68
2022/01/16 12:06:58;;;;;;;;;;;18.60;39.10;;;;;;5126515;27;43417;-71
2022/01/16 12:12:13;;;;;;;;;;;18.60;39.20;;;;;;5146700;27;42951;-70
2022/01/16 12:14:50;;;;;;;;;;;18.50;39.00;;;;;;5147076;27;42967;-69
2022/01/16 12:17:24;;;;;;;;;;;18.50;39.00;;;;;;5147479;27;43597;-68
2022/01/16 12:19:51;;;;;;;;;;;18.50;39.10;;;;;;5146916;27;42916;-69
2022/01/16 12:22:18;;;;;;;;;;;18.60;38.90;;;;;;5146813;27;43628;-70
2022/01/16 12:24:49;;;;;;;;;;;18.50;39.10;;;;;;5147052;27;43119;-69
2022/01/16 12:27:47;;;;;;;;;;;18.60;39.10;;;;;;5146282;27;45026;-68
2022/01/16 12:30:24;;;;;;;;;;;18.50;39.00;;;;;;5100212;27;43048;-69
2022/01/16 12:32:52;;;;;;;;;;;18.50;38.90;;;;;;5128035;27;43329;-70
2022/01/16 12:35:37;;;;;;;;;;;18.50;39.10;;;;;;5157811;27;42923;-70
2022/01/16 12:38:09;;;;;;;;;;;19.40;39.60;;;;;;5154596;27;43570;-69
2022/01/16 12:40:34;;;;;;;;;;;18.50;38.70;;;;;;5146078;27;42980;-70
2022/01/16 12:43:01;;;;;;;;;;;18.50;39.10;;;;;;5146270;27;43682;-70
2022/01/16 12:45:27;;;;;;;;;;;18.50;38.90;;;;;;5146560;27;43112;-70
2022/01/16 12:47:52;;;;;;;;;;;18.50;39.10;;;;;;5146639;27;43639;-72
2022/01/16 12:50:18;;;;;;;;;;;18.50;39.10;;;;;;5146937;27;42803;-69
2022/01/16 12:52:47;;;;;;;;;;;18.50;39.40;;;;;;5146454;27;42877;-69
2022/01/16 12:55:13;;;;;;;;;;;18.50;38.90;;;;;;5148423;27;42980;-69
2022/01/16 12:57:39;;;;;;;;;;;18.60;39.20;;;;;;5149181;27;43241;-70
2022/01/16 13:00:08;;;;;;;;;;;18.50;39.10;;;;;;5149471;27;43028;-72
2022/01/16 13:02:34;;;;;;;;;;;18.50;38.90;;;;;;5148130;27;43090;-76
2022/01/16 13:04:59;;;;;;;;;;;18.50;38.80;;;;;;5149836;27;43227;-81
2022/01/16 13:07:25;;;;;;;;;;;18.50;38.90;;;;;;5149238;27;43505;-77
2022/01/16 13:09:50;;;;;;;;;;;18.50;39.00;;;;;;5149876;27;42932;-81
2022/01/16 13:12:16;;;;;;;;;;;18.50;38.90;;;;;;5149504;27;43437;-80
2022/01/16 13:14:42;;;;;;;;;;;18.50;38.90;;;;;;5149926;27;43029;-71
2022/01/16 13:17:10;;;;;;;;;;;18.50;38.90;;;;;;5149511;27;43779;-74
2022/01/16 13:22:11;;;;;;;;;;;18.50;39.00;;;;;;5149105;27;43331;-78
2022/01/16 13:24:58;;;;;;;;;;;18.40;39.00;;;;;;5149381;27;42953;-67
2022/01/16 13:27:28;;;;;;;;;;;18.50;38.90;;;;;;5148523;27;43756;-78
2022/01/16 13:29:55;;;;;;;;;;;18.40;38.90;;;;;;5149821;27;43175;-80
2022/01/16 13:32:25;;;;;;;;;;;18.40;38.90;;;;;;5149090;27;43569;-68
2022/01/16 13:34:54;;;;;;;;;;;18.40;38.90;;;;;;5149415;27;42733;-80
2022/01/16 13:37:30;;;;;;;;;;;18.40;38.70;;;;;;5149028;27;42909;-82
2022/01/16 13:39:57;;;;;;;;;;;18.40;38.80;;;;;;5149133;27;42896;-71
2022/01/16 13:42:30;;;;;;;;;;;18.40;38.60;;;;;;5148854;27;43794;-80
2022/01/16 13:45:14;;;;;;;;;;;18.40;38.80;;;;;;5149152;27;43033;-81
2022/01/16 13:47:48;;;;;;;;;;;18.40;38.90;;;;;;5148698;27;43740;-76
2022/01/16 13:50:13;;;;;;;;;;;18.30;38.80;;;;;;5149170;27;42912;-78
2022/01/16 13:52:49;;;;;;;;;;;18.30;38.70;;;;;;5148935;27;42983;-81
2022/01/16 13:55:14;;;;;;;;;;;18.30;39.00;;;;;;5148587;27;43032;-75
2022/01/16 13:57:40;;;;;;;;;;;18.30;38.90;;;;;;5129569;27;42856;-82
2022/01/16 14:00:07;;;;;;;;;;;18.30;38.60;;;;;;5148277;27;43164;-82
2022/01/16 14:02:33;;;;;;;;;;;18.30;38.80;;;;;;5148700;27;43485;-68
2022/01/16 14:05:00;;;;;;;;;;;18.30;39.00;;;;;;5148080;27;42934;-68
2022/01/16 14:07:26;;;;;;;;;;;18.30;38.90;;;;;;5147794;27;43029;-69
2022/01/16 14:09:56;;;;;;;;;;;18.30;38.90;;;;;;5148557;27;43267;-69
2022/01/16 14:12:22;;;;;;;;;;;18.30;38.80;;;;;;5148742;27;43025;-69
2022/01/16 14:14:49;;;;;;;;;;;18.20;39.00;;;;;;5148863;27;43056;-68
2022/01/16 14:17:29;;;;;;;;;;;18.20;38.70;;;;;;5148767;27;43281;-68
2022/01/16 14:22:40;;;;;;;;;;;18.20;38.90;;;;;;5094425;27;43454;-68
2022/01/16 14:25:06;;;;;;;;;;;18.20;39.10;;;;;;5147866;27;43330;-68
2022/01/16 14:27:36;;;;;;;;;;;18.20;39.00;;;;;;5147123;27;43510;-69
2022/01/16 14:30:06;;;;;;;;;;;18.20;39.10;;;;;;5148040;27;42942;-69
2022/01/16 14:32:32;;;;;;;;;;;18.10;39.10;;;;;;5147556;27;43832;-68
2022/01/16 14:34:59;;;;;;;;;;;18.10;39.10;;;;;;5147760;27;42962;-68
2022/01/16 14:37:26;;;;;;;;;;;18.10;39.00;;;;;;5148220;27;42914;-70
2022/01/16 14:39:52;;;;;;;;;;;18.10;39.00;;;;;;5147343;27;43052;-70
2022/01/16 14:42:19;;;;;;;;;;;18.10;39.00;;;;;;5147680;27;43069;-69
2022/01/16 14:44:46;;;;;;;;;;;18.10;39.10;;;;;;5148192;27;42958;-69
2022/01/16 14:47:12;;;;;;;;;;;18.00;39.10;;;;;;5148857;27;43567;-69
2022/01/16 14:49:38;;;;;;;;;;;18.10;39.20;;;;;;5129506;27;43039;-69
2022/01/16 14:52:05;;;;;;;;;;;18.00;39.20;;;;;;5148521;27;42901;-71
2022/01/16 14:54:30;;;;;;;;;;;18.00;39.20;;;;;;5149314;27;42846;-70
2022/01/16 14:56:56;;;;;;;;;;;18.00;39.20;;;;;;5148017;27;43568;-72
2022/01/16 14:59:22;;;;;;;;;;;18.00;39.30;;;;;;5147598;27;42913;-68
2022/01/16 15:01:47;;;;;;;;;;;18.00;39.30;;;;;;5147738;27;43010;-73
2022/01/16 15:04:13;;;;;;;;;;;17.90;39.30;;;;;;5147273;27;42957;-69
2022/01/16 15:06:40;;;;;;;;;;;17.90;39.50;;;;;;5147568;27;42990;-69
2022/01/16 15:09:06;;;;;;;;;;;17.90;39.50;;;;;;5147408;27;43386;-69
2022/01/16 15:11:32;;;;;;;;;;;17.90;39.60;;;;;;5147953;27;43628;-70
2022/01/16 15:13:58;;;;;;;;;;;17.90;39.60;;;;;;5147875;27;42949;-69
2022/01/16 15:16:28;;;;;;;;;;;17.90;39.70;;;;;;5146613;27;44352;-74